sensor_id;sensor_type;location;lat;lon;timestamp;P1;durP1;ratioP1;P2;durP2;ratioP2
81398;SDS011;70853;50.074;10.224;2024-03-02T00:00:57;18.40;;;11.65;;
81398;SDS011;70853;50.074;10.224;2024-03-02T00:03:22;17.65;;;15.80;;
81398;SDS011;70853;50.074;10.224;2024-03-02T00:05:49;15.77;;;12.70;;
81398;SDS011;70853;50.074;10.224;2024-03-02T00:08:17;14.82;;;12.85;;
81398;SDS011;70853;50.074;10.224;2024-03-02T00:10:49;12.88;;;11.07;;
81398;SDS011;70853;50.074;10.224;2024-03-02T00:13:15;20.00;;;16.70;;
81398;SDS011;70853;50.074;10.224;2024-03-02T00:15:47;17.02;;;15.40;;
81398;SDS011;70853;50.074;10.224;2024-03-02T00:18:19;16.98;;;14.15;;
81398;SDS011;70853;50.074;10.224;2024-03-02T00:20:46;19.65;;;17.80;;
81398;SDS011;70853;50.074;10.224;2024-03-02T00:23:15;18.05;;;16.23;;
81398;SDS011;70853;50.074;10.224;2024-03-02T00:25:49;15.93;;;14.15;;
81398;SDS011;70853;50.074;10.224;2024-03-02T00:28:22;16.40;;;12.77;;
81398;SDS011;70853;50.074;10.224;2024-03-02T00:33:33;21.42;;;17.33;;
81398;SDS011;70853;50.074;10.224;2024-03-02T00:36:00;19.67;;;17.63;;
81398;SDS011;70853;50.074;10.224;2024-03-02T00:38:27;21.52;;;16.10;;
81398;SDS011;70853;50.074;10.224;2024-03-02T00:40:53;20.48;;;12.48;;
81398;SDS011;70853;50.074;10.224;2024-03-02T00:45:50;20.52;;;17.02;;
81398;SDS011;70853;50.074;10.224;2024-03-02T00:48:16;22.00;;;18.00;;
81398;SDS011;70853;50.074;10.224;2024-03-02T00:50:42;18.95;;;14.95;;
81398;SDS011;70853;50.074;10.224;2024-03-02T00:53:09;21.00;;;16.55;;
81398;SDS011;70853;50.074;10.224;2024-03-02T00:55:37;20.48;;;15.43;;
81398;SDS011;70853;50.074;10.224;2024-03-02T00:58:03;20.20;;;16.45;;
81398;SDS011;70853;50.074;10.224;2024-03-02T01:00:28;20.40;;;16.88;;
81398;SDS011;70853;50.074;10.224;2024-03-02T01:02:54;19.70;;;16.08;;
81398;SDS011;70853;50.074;10.224;2024-03-02T01:05:20;23.10;;;16.85;;
81398;SDS011;70853;50.074;10.224;2024-03-02T01:07:45;20.40;;;18.25;;
81398;SDS011;70853;50.074;10.224;2024-03-02T01:10:11;22.45;;;16.98;;
81398;SDS011;70853;50.074;10.224;2024-03-02T01:12:36;20.33;;;14.05;;
81398;SDS011;70853;50.074;10.224;2024-03-02T01:15:02;16.65;;;14.50;;
81398;SDS011;70853;50.074;10.224;2024-03-02T01:17:31;20.10;;;15.27;;
81398;SDS011;70853;50.074;10.224;2024-03-02T01:19:56;26.33;;;21.45;;
81398;SDS011;70853;50.074;10.224;2024-03-02T01:22:23;24.08;;;18.08;;
81398;SDS011;70853;50.074;10.224;2024-03-02T01:27:16;25.45;;;23.05;;
81398;SDS011;70853;50.074;10.224;2024-03-02T01:29:41;24.92;;;22.48;;
81398;SDS011;70853;50.074;10.224;2024-03-02T01:32:07;23.73;;;15.25;;
81398;SDS011;70853;50.074;10.224;2024-03-02T01:34:32;23.70;;;20.85;;
81398;SDS011;70853;50.074;10.224;2024-03-02T01:36:58;23.17;;;18.63;;
81398;SDS011;70853;50.074;10.224;2024-03-02T01:39:23;30.15;;;26.95;;
81398;SDS011;70853;50.074;10.224;2024-03-02T01:41:49;19.88;;;15.60;;
81398;SDS011;70853;50.074;10.224;2024-03-02T01:44:14;21.88;;;14.57;;
81398;SDS011;70853;50.074;10.224;2024-03-02T01:46:40;19.73;;;15.57;;
81398;SDS011;70853;50.074;10.224;2024-03-02T01:49:05;22.83;;;14.25;;
81398;SDS011;70853;50.074;10.224;2024-03-02T01:51:31;25.63;;;16.27;;
81398;SDS011;70853;50.074;10.224;2024-03-02T01:53:56;18.98;;;14.48;;
81398;SDS011;70853;50.074;10.224;2024-03-02T01:56:22;20.02;;;13.95;;
81398;SDS011;70853;50.074;10.224;2024-03-02T01:58:48;19.60;;;16.15;;
81398;SDS011;70853;50.074;10.224;2024-03-02T02:01:13;22.95;;;20.00;;
81398;SDS011;70853;50.074;10.224;2024-03-02T02:03:39;19.67;;;15.65;;
81398;SDS011;70853;50.074;10.224;2024-03-02T02:06:05;25.33;;;16.38;;
81398;SDS011;70853;50.074;10.224;2024-03-02T02:08:32;20.85;;;13.65;;
81398;SDS011;70853;50.074;10.224;2024-03-02T02:10:57;22.40;;;15.05;;
81398;SDS011;70853;50.074;10.224;2024-03-02T02:13:24;22.80;;;17.85;;
81398;SDS011;70853;50.074;10.224;2024-03-02T02:15:49;25.40;;;17.52;;
81398;SDS011;70853;50.074;10.224;2024-03-02T02:18:15;21.23;;;15.90;;
81398;SDS011;70853;50.074;10.224;2024-03-02T02:20:41;23.00;;;19.20;;
81398;SDS011;70853;50.074;10.224;2024-03-02T02:23:06;20.92;;;17.20;;
81398;SDS011;70853;50.074;10.224;2024-03-02T02:25:34;19.33;;;17.30;;
81398;SDS011;70853;50.074;10.224;2024-03-02T02:28:00;23.65;;;16.17;;
81398;SDS011;70853;50.074;10.224;2024-03-02T02:30:28;21.70;;;13.88;;
81398;SDS011;70853;50.074;10.224;2024-03-02T02:32:55;20.80;;;15.48;;
81398;SDS011;70853;50.074;10.224;2024-03-02T02:35:20;20.17;;;15.23;;
81398;SDS011;70853;50.074;10.224;2024-03-02T02:37:46;24.20;;;21.50;;
81398;SDS011;70853;50.074;10.224;2024-03-02T02:40:12;19.70;;;17.13;;
81398;SDS011;70853;50.074;10.224;2024-03-02T02:42:38;24.00;;;15.85;;
81398;SDS011;70853;50.074;10.224;2024-03-02T02:45:05;22.08;;;17.80;;
81398;SDS011;70853;50.074;10.224;2024-03-02T02:47:32;21.25;;;15.77;;
81398;SDS011;70853;50.074;10.224;2024-03-02T02:50:00;19.23;;;12.65;;
81398;SDS011;70853;50.074;10.224;2024-03-02T02:52:30;19.23;;;13.02;;
81398;SDS011;70853;50.074;10.224;2024-03-02T02:54:58;22.27;;;18.23;;
81398;SDS011;70853;50.074;10.224;2024-03-02T02:57:23;22.52;;;13.38;;
81398;SDS011;70853;50.074;10.224;2024-03-02T02:59:49;24.60;;;16.67;;
81398;SDS011;70853;50.074;10.224;2024-03-02T03:02:14;19.60;;;14.98;;
81398;SDS011;70853;50.074;10.224;2024-03-02T03:04:40;21.15;;;15.48;;
81398;SDS011;70853;50.074;10.224;2024-03-02T03:07:05;21.92;;;15.93;;
81398;SDS011;70853;50.074;10.224;2024-03-02T03:09:31;19.25;;;14.43;;
81398;SDS011;70853;50.074;10.224;2024-03-02T03:11:57;23.05;;;20.67;;
81398;SDS011;70853;50.074;10.224;2024-03-02T03:14:22;19.80;;;17.77;;
81398;SDS011;70853;50.074;10.224;2024-03-02T03:16:48;24.65;;;21.92;;
81398;SDS011;70853;50.074;10.224;2024-03-02T03:19:13;22.58;;;12.93;;
81398;SDS011;70853;50.074;10.224;2024-03-02T03:21:39;21.20;;;14.02;;
81398;SDS011;70853;50.074;10.224;2024-03-02T03:24:04;21.30;;;13.93;;
81398;SDS011;70853;50.074;10.224;2024-03-02T03:26:30;20.85;;;16.33;;
81398;SDS011;70853;50.074;10.224;2024-03-02T03:28:55;19.90;;;13.95;;
81398;SDS011;70853;50.074;10.224;2024-03-02T03:31:21;20.02;;;16.55;;
81398;SDS011;70853;50.074;10.224;2024-03-02T03:33:46;17.05;;;14.50;;
81398;SDS011;70853;50.074;10.224;2024-03-02T03:36:12;20.63;;;16.45;;
81398;SDS011;70853;50.074;10.224;2024-03-02T03:38:37;21.48;;;19.23;;
81398;SDS011;70853;50.074;10.224;2024-03-02T03:41:03;22.65;;;17.85;;
81398;SDS011;70853;50.074;10.224;2024-03-02T03:43:28;23.52;;;20.73;;
81398;SDS011;70853;50.074;10.224;2024-03-02T03:45:54;19.58;;;17.50;;
81398;SDS011;70853;50.074;10.224;2024-03-02T03:48:20;22.55;;;17.30;;
81398;SDS011;70853;50.074;10.224;2024-03-02T03:50:45;19.00;;;15.27;;
81398;SDS011;70853;50.074;10.224;2024-03-02T03:53:11;17.13;;;14.40;;
81398;SDS011;70853;50.074;10.224;2024-03-02T03:55:36;18.48;;;12.80;;
81398;SDS011;70853;50.074;10.224;2024-03-02T03:58:02;24.10;;;20.40;;
81398;SDS011;70853;50.074;10.224;2024-03-02T04:00:28;22.52;;;18.92;;
81398;SDS011;70853;50.074;10.224;2024-03-02T04:02:53;17.08;;;14.57;;
81398;SDS011;70853;50.074;10.224;2024-03-02T04:05:18;27.00;;;24.40;;
81398;SDS011;70853;50.074;10.224;2024-03-02T04:07:44;19.33;;;16.83;;
81398;SDS011;70853;50.074;10.224;2024-03-02T04:10:10;18.27;;;14.18;;
81398;SDS011;70853;50.074;10.224;2024-03-02T04:12:36;20.60;;;14.40;;
81398;SDS011;70853;50.074;10.224;2024-03-02T04:15:03;19.13;;;16.70;;
81398;SDS011;70853;50.074;10.224;2024-03-02T04:17:31;18.75;;;13.52;;
81398;SDS011;70853;50.074;10.224;2024-03-02T04:19:58;19.95;;;17.25;;
81398;SDS011;70853;50.074;10.224;2024-03-02T04:22:25;19.05;;;15.95;;
81398;SDS011;70853;50.074;10.224;2024-03-02T04:24:51;20.55;;;15.93;;
81398;SDS011;70853;50.074;10.224;2024-03-02T04:27:17;22.33;;;19.10;;
81398;SDS011;70853;50.074;10.224;2024-03-02T04:29:42;20.02;;;16.20;;
81398;SDS011;70853;50.074;10.224;2024-03-02T04:32:08;17.35;;;14.98;;
81398;SDS011;70853;50.074;10.224;2024-03-02T04:34:33;18.77;;;16.23;;
81398;SDS011;70853;50.074;10.224;2024-03-02T04:36:59;20.13;;;15.52;;
81398;SDS011;70853;50.074;10.224;2024-03-02T04:39:24;22.67;;;15.93;;
81398;SDS011;70853;50.074;10.224;2024-03-02T04:41:50;21.48;;;17.75;;
81398;SDS011;70853;50.074;10.224;2024-03-02T04:44:15;16.00;;;13.80;;
81398;SDS011;70853;50.074;10.224;2024-03-02T04:46:41;23.40;;;20.40;;
81398;SDS011;70853;50.074;10.224;2024-03-02T04:49:06;18.33;;;16.55;;
81398;SDS011;70853;50.074;10.224;2024-03-02T04:51:32;20.85;;;16.35;;
81398;SDS011;70853;50.074;10.224;2024-03-02T04:53:57;23.02;;;20.85;;
81398;SDS011;70853;50.074;10.224;2024-03-02T04:56:23;23.80;;;21.48;;
81398;SDS011;70853;50.074;10.224;2024-03-02T04:58:57;19.85;;;17.83;;
81398;SDS011;70853;50.074;10.224;2024-03-02T05:01:22;22.63;;;20.25;;
81398;SDS011;70853;50.074;10.224;2024-03-02T05:03:48;22.98;;;20.65;;
81398;SDS011;70853;50.074;10.224;2024-03-02T05:06:13;22.08;;;19.88;;
81398;SDS011;70853;50.074;10.224;2024-03-02T05:08:39;20.13;;;18.05;;
81398;SDS011;70853;50.074;10.224;2024-03-02T05:11:04;19.85;;;17.77;;
81398;SDS011;70853;50.074;10.224;2024-03-02T05:13:49;16.52;;;14.05;;
81398;SDS011;70853;50.074;10.224;2024-03-02T05:16:14;25.17;;;23.02;;
81398;SDS011;70853;50.074;10.224;2024-03-02T05:18:39;21.73;;;18.17;;
81398;SDS011;70853;50.074;10.224;2024-03-02T05:21:05;20.17;;;17.23;;
81398;SDS011;70853;50.074;10.224;2024-03-02T05:23:30;19.10;;;17.05;;
81398;SDS011;70853;50.074;10.224;2024-03-02T05:25:56;20.95;;;18.90;;
81398;SDS011;70853;50.074;10.224;2024-03-02T05:28:21;24.40;;;22.15;;
81398;SDS011;70853;50.074;10.224;2024-03-02T05:30:47;16.60;;;14.15;;
81398;SDS011;70853;50.074;10.224;2024-03-02T05:33:12;24.00;;;21.58;;
81398;SDS011;70853;50.074;10.224;2024-03-02T05:35:38;31.83;;;28.85;;
81398;SDS011;70853;50.074;10.224;2024-03-02T05:38:03;25.50;;;22.33;;
81398;SDS011;70853;50.074;10.224;2024-03-02T05:40:29;29.35;;;26.55;;
81398;SDS011;70853;50.074;10.224;2024-03-02T05:42:54;20.17;;;18.23;;
81398;SDS011;70853;50.074;10.224;2024-03-02T05:45:20;22.30;;;19.98;;
81398;SDS011;70853;50.074;10.224;2024-03-02T05:47:45;20.27;;;18.35;;
81398;SDS011;70853;50.074;10.224;2024-03-02T05:50:11;19.80;;;17.70;;
81398;SDS011;70853;50.074;10.224;2024-03-02T05:52:36;22.35;;;20.30;;
81398;SDS011;70853;50.074;10.224;2024-03-02T05:55:02;17.48;;;14.52;;
81398;SDS011;70853;50.074;10.224;2024-03-02T05:57:27;25.35;;;21.50;;
81398;SDS011;70853;50.074;10.224;2024-03-02T06:00:12;19.33;;;16.65;;
81398;SDS011;70853;50.074;10.224;2024-03-02T06:02:39;21.23;;;18.92;;
81398;SDS011;70853;50.074;10.224;2024-03-02T06:05:05;19.80;;;17.35;;
81398;SDS011;70853;50.074;10.224;2024-03-02T06:07:32;20.67;;;16.55;;
81398;SDS011;70853;50.074;10.224;2024-03-02T06:09:58;19.95;;;17.15;;
81398;SDS011;70853;50.074;10.224;2024-03-02T06:12:23;23.38;;;21.08;;
81398;SDS011;70853;50.074;10.224;2024-03-02T06:14:49;20.00;;;17.90;;
81398;SDS011;70853;50.074;10.224;2024-03-02T06:17:14;26.08;;;23.48;;
81398;SDS011;70853;50.074;10.224;2024-03-02T06:19:40;19.73;;;17.63;;
81398;SDS011;70853;50.074;10.224;2024-03-02T06:22:05;22.08;;;19.98;;
81398;SDS011;70853;50.074;10.224;2024-03-02T06:24:31;22.98;;;20.55;;
81398;SDS011;70853;50.074;10.224;2024-03-02T06:26:57;22.08;;;19.90;;
81398;SDS011;70853;50.074;10.224;2024-03-02T06:29:22;24.55;;;22.10;;
81398;SDS011;70853;50.074;10.224;2024-03-02T06:31:48;24.25;;;19.58;;
81398;SDS011;70853;50.074;10.224;2024-03-02T06:34:13;18.80;;;15.60;;
81398;SDS011;70853;50.074;10.224;2024-03-02T06:36:39;20.08;;;16.85;;
81398;SDS011;70853;50.074;10.224;2024-03-02T06:39:05;19.50;;;17.25;;
81398;SDS011;70853;50.074;10.224;2024-03-02T06:41:31;20.50;;;18.48;;
81398;SDS011;70853;50.074;10.224;2024-03-02T06:43:56;21.52;;;18.45;;
81398;SDS011;70853;50.074;10.224;2024-03-02T06:46:27;20.50;;;17.27;;
81398;SDS011;70853;50.074;10.224;2024-03-02T06:48:53;21.60;;;19.40;;
81398;SDS011;70853;50.074;10.224;2024-03-02T06:51:18;20.27;;;17.55;;
81398;SDS011;70853;50.074;10.224;2024-03-02T06:53:44;21.85;;;16.35;;
81398;SDS011;70853;50.074;10.224;2024-03-02T06:56:09;22.60;;;20.13;;
81398;SDS011;70853;50.074;10.224;2024-03-02T06:58:35;23.52;;;18.88;;
81398;SDS011;70853;50.074;10.224;2024-03-02T07:01:00;17.88;;;15.20;;
81398;SDS011;70853;50.074;10.224;2024-03-02T07:03:26;22.25;;;15.32;;
81398;SDS011;70853;50.074;10.224;2024-03-02T07:05:51;21.70;;;17.95;;
81398;SDS011;70853;50.074;10.224;2024-03-02T07:08:17;21.95;;;19.65;;
81398;SDS011;70853;50.074;10.224;2024-03-02T07:10:42;24.88;;;15.98;;
81398;SDS011;70853;50.074;10.224;2024-03-02T07:13:07;20.23;;;18.20;;
81398;SDS011;70853;50.074;10.224;2024-03-02T07:15:33;22.65;;;20.33;;
81398;SDS011;70853;50.074;10.224;2024-03-02T07:18:19;17.48;;;14.85;;
81398;SDS011;70853;50.074;10.224;2024-03-02T07:20:44;20.85;;;17.45;;
81398;SDS011;70853;50.074;10.224;2024-03-02T07:23:10;21.60;;;19.35;;
81398;SDS011;70853;50.074;10.224;2024-03-02T07:25:35;24.33;;;21.88;;
81398;SDS011;70853;50.074;10.224;2024-03-02T07:28:01;21.50;;;19.20;;
81398;SDS011;70853;50.074;10.224;2024-03-02T07:30:26;25.48;;;21.13;;
81398;SDS011;70853;50.074;10.224;2024-03-02T07:32:52;20.30;;;18.02;;
81398;SDS011;70853;50.074;10.224;2024-03-02T07:35:18;21.30;;;17.10;;
81398;SDS011;70853;50.074;10.224;2024-03-02T07:37:44;23.90;;;18.35;;
81398;SDS011;70853;50.074;10.224;2024-03-02T07:40:10;22.92;;;19.33;;
81398;SDS011;70853;50.074;10.224;2024-03-02T07:42:38;29.70;;;23.33;;
81398;SDS011;70853;50.074;10.224;2024-03-02T07:45:05;23.17;;;19.20;;
81398;SDS011;70853;50.074;10.224;2024-03-02T07:47:32;25.10;;;22.70;;
81398;SDS011;70853;50.074;10.224;2024-03-02T07:49:59;23.30;;;19.95;;
81398;SDS011;70853;50.074;10.224;2024-03-02T07:52:24;23.50;;;21.27;;
81398;SDS011;70853;50.074;10.224;2024-03-02T07:54:49;29.25;;;22.75;;
81398;SDS011;70853;50.074;10.224;2024-03-02T07:57:16;21.45;;;19.23;;
81398;SDS011;70853;50.074;10.224;2024-03-02T07:59:41;24.77;;;22.02;;
81398;SDS011;70853;50.074;10.224;2024-03-02T08:02:08;19.20;;;17.15;;
81398;SDS011;70853;50.074;10.224;2024-03-02T08:04:39;29.02;;;20.13;;
81398;SDS011;70853;50.074;10.224;2024-03-02T08:07:05;21.48;;;19.17;;
81398;SDS011;70853;50.074;10.224;2024-03-02T08:09:31;27.10;;;20.13;;
81398;SDS011;70853;50.074;10.224;2024-03-02T08:11:56;23.30;;;19.80;;
81398;SDS011;70853;50.074;10.224;2024-03-02T08:14:23;26.08;;;22.83;;
81398;SDS011;70853;50.074;10.224;2024-03-02T08:16:49;32.45;;;29.13;;
81398;SDS011;70853;50.074;10.224;2024-03-02T08:19:14;26.10;;;18.25;;
81398;SDS011;70853;50.074;10.224;2024-03-02T08:21:41;22.35;;;20.20;;
81398;SDS011;70853;50.074;10.224;2024-03-02T08:24:07;20.45;;;17.80;;
81398;SDS011;70853;50.074;10.224;2024-03-02T08:26:33;23.75;;;21.23;;
81398;SDS011;70853;50.074;10.224;2024-03-02T08:28:59;17.23;;;14.07;;
81398;SDS011;70853;50.074;10.224;2024-03-02T08:31:27;17.75;;;12.55;;
81398;SDS011;70853;50.074;10.224;2024-03-02T08:33:52;18.92;;;16.92;;
81398;SDS011;70853;50.074;10.224;2024-03-02T08:36:18;15.18;;;13.30;;
81398;SDS011;70853;50.074;10.224;2024-03-02T08:38:44;19.05;;;14.73;;
81398;SDS011;70853;50.074;10.224;2024-03-02T08:41:10;17.90;;;11.45;;
81398;SDS011;70853;50.074;10.224;2024-03-02T08:43:38;14.90;;;10.88;;
81398;SDS011;70853;50.074;10.224;2024-03-02T08:46:05;14.70;;;12.45;;
81398;SDS011;70853;50.074;10.224;2024-03-02T08:48:31;17.88;;;14.27;;
81398;SDS011;70853;50.074;10.224;2024-03-02T08:50:56;15.77;;;12.85;;
81398;SDS011;70853;50.074;10.224;2024-03-02T08:53:22;20.58;;;18.58;;
81398;SDS011;70853;50.074;10.224;2024-03-02T08:55:47;15.65;;;14.05;;
81398;SDS011;70853;50.074;10.224;2024-03-02T08:58:13;20.75;;;17.67;;
81398;SDS011;70853;50.074;10.224;2024-03-02T09:00:38;21.42;;;19.35;;
81398;SDS011;70853;50.074;10.224;2024-03-02T09:03:04;20.05;;;15.82;;
81398;SDS011;70853;50.074;10.224;2024-03-02T09:05:30;19.40;;;17.52;;
81398;SDS011;70853;50.074;10.224;2024-03-02T09:07:59;18.83;;;17.05;;
81398;SDS011;70853;50.074;10.224;2024-03-02T09:10:24;14.68;;;10.57;;
81398;SDS011;70853;50.074;10.224;2024-03-02T09:12:50;20.30;;;18.17;;
81398;SDS011;70853;50.074;10.224;2024-03-02T09:15:15;17.83;;;16.13;;
81398;SDS011;70853;50.074;10.224;2024-03-02T09:17:41;18.58;;;16.80;;
81398;SDS011;70853;50.074;10.224;2024-03-02T09:20:06;14.30;;;12.80;;
81398;SDS011;70853;50.074;10.224;2024-03-02T09:22:32;13.80;;;11.45;;
81398;SDS011;70853;50.074;10.224;2024-03-02T09:24:58;17.67;;;14.02;;
81398;SDS011;70853;50.074;10.224;2024-03-02T09:27:24;15.55;;;14.13;;
81398;SDS011;70853;50.074;10.224;2024-03-02T09:29:49;13.30;;;11.90;;
81398;SDS011;70853;50.074;10.224;2024-03-02T09:32:15;20.38;;;14.98;;
81398;SDS011;70853;50.074;10.224;2024-03-02T09:34:41;13.98;;;11.73;;
81398;SDS011;70853;50.074;10.224;2024-03-02T09:37:06;17.02;;;15.43;;
81398;SDS011;70853;50.074;10.224;2024-03-02T09:39:33;13.68;;;11.40;;
81398;SDS011;70853;50.074;10.224;2024-03-02T09:41:58;18.80;;;16.95;;
81398;SDS011;70853;50.074;10.224;2024-03-02T09:44:24;18.33;;;16.42;;
81398;SDS011;70853;50.074;10.224;2024-03-02T09:46:51;19.33;;;17.48;;
81398;SDS011;70853;50.074;10.224;2024-03-02T09:49:17;18.00;;;15.30;;
81398;SDS011;70853;50.074;10.224;2024-03-02T09:51:45;18.40;;;16.35;;
81398;SDS011;70853;50.074;10.224;2024-03-02T09:54:13;20.02;;;17.92;;
81398;SDS011;70853;50.074;10.224;2024-03-02T09:56:38;19.33;;;17.33;;
81398;SDS011;70853;50.074;10.224;2024-03-02T09:59:04;20.58;;;18.35;;
81398;SDS011;70853;50.074;10.224;2024-03-02T10:01:30;18.60;;;12.85;;
81398;SDS011;70853;50.074;10.224;2024-03-02T10:03:58;20.02;;;18.15;;
81398;SDS011;70853;50.074;10.224;2024-03-02T10:06:26;18.48;;;14.10;;
81398;SDS011;70853;50.074;10.224;2024-03-02T10:08:52;15.98;;;13.63;;
81398;SDS011;70853;50.074;10.224;2024-03-02T10:11:26;19.17;;;17.38;;
81398;SDS011;70853;50.074;10.224;2024-03-02T10:14:26;12.70;;;10.63;;
81398;SDS011;70853;50.074;10.224;2024-03-02T10:16:45;15.50;;;13.88;;
81398;SDS011;70853;50.074;10.224;2024-03-02T10:19:17;14.48;;;12.98;;
81398;SDS011;70853;50.074;10.224;2024-03-02T10:21:47;17.65;;;15.95;;
81398;SDS011;70853;50.074;10.224;2024-03-02T10:24:17;21.42;;;19.45;;
81398;SDS011;70853;50.074;10.224;2024-03-02T10:26:47;13.68;;;10.35;;
81398;SDS011;70853;50.074;10.224;2024-03-02T10:29:13;15.55;;;14.05;;
81398;SDS011;70853;50.074;10.224;2024-03-02T10:31:39;16.40;;;14.75;;
81398;SDS011;70853;50.074;10.224;2024-03-02T10:34:06;15.82;;;12.80;;
81398;SDS011;70853;50.074;10.224;2024-03-02T10:36:36;13.32;;;11.82;;
81398;SDS011;70853;50.074;10.224;2024-03-02T10:39:05;20.77;;;19.02;;
81398;SDS011;70853;50.074;10.224;2024-03-02T10:41:32;13.35;;;10.18;;
81398;SDS011;70853;50.074;10.224;2024-03-02T10:44:03;20.25;;;18.48;;
81398;SDS011;70853;50.074;10.224;2024-03-02T10:46:30;18.80;;;16.92;;
81398;SDS011;70853;50.074;10.224;2024-03-02T10:48:56;15.98;;;14.25;;
81398;SDS011;70853;50.074;10.224;2024-03-02T10:51:26;16.80;;;15.15;;
81398;SDS011;70853;50.074;10.224;2024-03-02T10:53:54;12.52;;;10.77;;
81398;SDS011;70853;50.074;10.224;2024-03-02T10:59:27;13.27;;;11.93;;
81398;SDS011;70853;50.074;10.224;2024-03-02T11:01:57;12.65;;;9.85;;
81398;SDS011;70853;50.074;10.224;2024-03-02T11:04:24;12.20;;;10.93;;
81398;SDS011;70853;50.074;10.224;2024-03-02T11:07:02;13.52;;;12.20;;
81398;SDS011;70853;50.074;10.224;2024-03-02T11:09:29;20.80;;;19.00;;
81398;SDS011;70853;50.074;10.224;2024-03-02T11:14:31;17.20;;;15.38;;
81398;SDS011;70853;50.074;10.224;2024-03-02T11:16:58;11.23;;;9.73;;
81398;SDS011;70853;50.074;10.224;2024-03-02T11:19:26;13.95;;;9.13;;
81398;SDS011;70853;50.074;10.224;2024-03-02T11:21:52;13.93;;;12.40;;
81398;SDS011;70853;50.074;10.224;2024-03-02T11:26:50;9.02;;;7.88;;
81398;SDS011;70853;50.074;10.224;2024-03-02T11:32:01;15.18;;;13.77;;
81398;SDS011;70853;50.074;10.224;2024-03-02T11:34:34;14.02;;;12.73;;
81398;SDS011;70853;50.074;10.224;2024-03-02T11:37:01;14.23;;;13.02;;
81398;SDS011;70853;50.074;10.224;2024-03-02T11:39:27;15.27;;;14.05;;
81398;SDS011;70853;50.074;10.224;2024-03-02T11:41:53;15.23;;;13.80;;
81398;SDS011;70853;50.074;10.224;2024-03-02T11:44:22;13.85;;;12.60;;
81398;SDS011;70853;50.074;10.224;2024-03-02T11:47:00;10.80;;;9.68;;
81398;SDS011;70853;50.074;10.224;2024-03-02T11:50:11;17.90;;;16.35;;
81398;SDS011;70853;50.074;10.224;2024-03-02T11:52:16;11.23;;;10.07;;
81398;SDS011;70853;50.074;10.224;2024-03-02T11:54:46;9.55;;;8.55;;
81398;SDS011;70853;50.074;10.224;2024-03-02T11:57:16;10.90;;;9.98;;
81398;SDS011;70853;50.074;10.224;2024-03-02T11:59:45;8.68;;;7.88;;
81398;SDS011;70853;50.074;10.224;2024-03-02T12:02:21;10.05;;;9.15;;
81398;SDS011;70853;50.074;10.224;2024-03-02T12:04:47;9.32;;;8.43;;
81398;SDS011;70853;50.074;10.224;2024-03-02T12:07:20;9.98;;;9.07;;
81398;SDS011;70853;50.074;10.224;2024-03-02T12:09:49;9.90;;;8.98;;
81398;SDS011;70853;50.074;10.224;2024-03-02T12:12:24;11.93;;;10.73;;
81398;SDS011;70853;50.074;10.224;2024-03-02T12:14:52;11.60;;;10.50;;
81398;SDS011;70853;50.074;10.224;2024-03-02T12:17:20;11.70;;;10.75;;
81398;SDS011;70853;50.074;10.224;2024-03-02T12:19:46;13.07;;;11.73;;
81398;SDS011;70853;50.074;10.224;2024-03-02T12:22:12;9.25;;;8.45;;
81398;SDS011;70853;50.074;10.224;2024-03-02T12:24:37;11.48;;;10.48;;
81398;SDS011;70853;50.074;10.224;2024-03-02T12:27:04;12.73;;;11.63;;
81398;SDS011;70853;50.074;10.224;2024-03-02T12:29:31;13.82;;;9.80;;
81398;SDS011;70853;50.074;10.224;2024-03-02T12:31:56;10.30;;;9.43;;
81398;SDS011;70853;50.074;10.224;2024-03-02T12:34:22;19.92;;;18.40;;
81398;SDS011;70853;50.074;10.224;2024-03-02T12:36:48;12.68;;;11.45;;
81398;SDS011;70853;50.074;10.224;2024-03-02T12:39:19;7.10;;;6.20;;
81398;SDS011;70853;50.074;10.224;2024-03-02T12:41:54;12.20;;;7.93;;
81398;SDS011;70853;50.074;10.224;2024-03-02T12:44:20;11.45;;;10.55;;
81398;SDS011;70853;50.074;10.224;2024-03-02T12:46:46;13.88;;;12.82;;
81398;SDS011;70853;50.074;10.224;2024-03-02T12:49:12;7.32;;;6.03;;
81398;SDS011;70853;50.074;10.224;2024-03-02T12:51:41;8.90;;;7.65;;
81398;SDS011;70853;50.074;10.224;2024-03-02T12:54:10;7.72;;;7.03;;
81398;SDS011;70853;50.074;10.224;2024-03-02T12:56:36;9.98;;;9.18;;
81398;SDS011;70853;50.074;10.224;2024-03-02T12:59:03;9.57;;;8.75;;
81398;SDS011;70853;50.074;10.224;2024-03-02T13:01:28;14.75;;;13.52;;
81398;SDS011;70853;50.074;10.224;2024-03-02T13:03:54;11.05;;;10.00;;
81398;SDS011;70853;50.074;10.224;2024-03-02T13:06:21;12.43;;;11.43;;
81398;SDS011;70853;50.074;10.224;2024-03-02T13:08:46;9.35;;;8.55;;
81398;SDS011;70853;50.074;10.224;2024-03-02T13:11:12;10.73;;;9.93;;
81398;SDS011;70853;50.074;10.224;2024-03-02T13:13:39;8.98;;;8.20;;
81398;SDS011;70853;50.074;10.224;2024-03-02T13:16:11;8.07;;;7.35;;
81398;SDS011;70853;50.074;10.224;2024-03-02T13:18:40;8.65;;;7.75;;
81398;SDS011;70853;50.074;10.224;2024-03-02T13:21:06;10.95;;;9.90;;
81398;SDS011;70853;50.074;10.224;2024-03-02T13:23:32;10.45;;;9.23;;
81398;SDS011;70853;50.074;10.224;2024-03-02T13:25:58;11.25;;;10.05;;
81398;SDS011;70853;50.074;10.224;2024-03-02T13:28:27;8.27;;;7.25;;
81398;SDS011;70853;50.074;10.224;2024-03-02T13:30:52;7.00;;;6.30;;
81398;SDS011;70853;50.074;10.224;2024-03-02T13:33:18;6.63;;;5.88;;
81398;SDS011;70853;50.074;10.224;2024-03-02T13:35:50;10.77;;;9.95;;
81398;SDS011;70853;50.074;10.224;2024-03-02T13:38:17;9.38;;;8.65;;
81398;SDS011;70853;50.074;10.224;2024-03-02T13:40:44;9.95;;;8.90;;
81398;SDS011;70853;50.074;10.224;2024-03-02T13:43:10;14.68;;;13.68;;
81398;SDS011;70853;50.074;10.224;2024-03-02T13:45:36;7.40;;;5.38;;
81398;SDS011;70853;50.074;10.224;2024-03-02T13:48:02;6.03;;;5.10;;
81398;SDS011;70853;50.074;10.224;2024-03-02T13:50:28;6.10;;;5.53;;
81398;SDS011;70853;50.074;10.224;2024-03-02T13:52:55;10.27;;;9.43;;
81398;SDS011;70853;50.074;10.224;2024-03-02T13:55:21;9.05;;;8.32;;
81398;SDS011;70853;50.074;10.224;2024-03-02T13:57:46;9.07;;;8.38;;
81398;SDS011;70853;50.074;10.224;2024-03-02T14:00:13;8.75;;;7.95;;
81398;SDS011;70853;50.074;10.224;2024-03-02T14:02:40;9.43;;;8.70;;
81398;SDS011;70853;50.074;10.224;2024-03-02T14:05:06;8.07;;;7.18;;
81398;SDS011;70853;50.074;10.224;2024-03-02T14:07:37;13.02;;;11.93;;
81398;SDS011;70853;50.074;10.224;2024-03-02T14:10:03;11.90;;;10.95;;
81398;SDS011;70853;50.074;10.224;2024-03-02T14:12:29;10.75;;;9.88;;
81398;SDS011;70853;50.074;10.224;2024-03-02T14:14:54;9.65;;;8.85;;
81398;SDS011;70853;50.074;10.224;2024-03-02T14:17:24;10.95;;;10.15;;
81398;SDS011;70853;50.074;10.224;2024-03-02T14:19:50;8.25;;;7.60;;
81398;SDS011;70853;50.074;10.224;2024-03-02T14:22:18;10.73;;;9.93;;
81398;SDS011;70853;50.074;10.224;2024-03-02T14:24:44;10.18;;;9.35;;
81398;SDS011;70853;50.074;10.224;2024-03-02T14:27:10;14.95;;;13.93;;